Washington Dulles International Airport Washington US
ICAO: KIAD
IATA: IAD
Category: Large
Scheduled Services: Yes

Elevation: 312 ft
TransAlt. 18000 ft.

Airport Communications:
POTOMAC APP:120.45
ATIS:134.85
CLNC DEL:135.7
POTOMAC DEP:125.05
GND:121.9
ARMEL RCO:113.5
RAMP CON:129.55
TWR:120.1
UNICOM:122.95

KIAD Zoom In..

If you have problems with the map follow the link
https://www.worldairports.se/pages/airport.php?
ICAO=KIAD

Runways:

(A) RW 01C length 11500 ft width 150 ft
ILS 111.30 / hdg 11

(B) RW 01L length 9400 ft width 150 ft
ILS 110.75 / hdg 11

(C) RW 01R length 11500 ft width 150 ft
ILS 110.10 / hdg 11

(D) RW 12 length 10501 ft width 150 ft
ILS 109.30 / hdg 121

(E) RW 19C length 11500 ft width 150 ft
ILS 111.30 / hdg 191

(F) RW 19L length 11500 ft width 150 ft
ILS 110.10 / hdg 191

(G) RW 19R length 9400 ft width 150 ft
ILS 110.75 / hdg 191

(H) RW 30 length 10501 ft width 150 ft
---- / hdg 301

Location; KIAD
Day. 13 / Time. 21.45 Zulu
* Altimeter: 30.09
* Temperature: 02° c. 35.6°f.
* Wind from: 010° Speed 06 kn.
Dewpoint: 01° c.
Visibility: 1/2 Statute Miles.
Clouds: Overcast 200 ft.
Conditions: Mist.

KIAD 132145Z 01006KT 1/2SM R01R/2600V4500FT BR OVC002 02/01 A3009 RMK AO2 SFC VIS 1 1/4 T00170006


Wind From 010°
Speed 06 kn.

 
 
jpsmedia worldairports.se 2019   terms of use